createdAt,value
2022-11-29T06:56:47.762Z,1003.34
2022-11-29T06:57:49.811Z,1003.37
2022-11-29T06:58:51.839Z,1003.38
2022-11-29T06:59:53.849Z,1003.39
2022-11-29T07:00:55.897Z,1003.41
2022-11-29T07:01:57.879Z,1003.44
2022-11-29T07:02:59.892Z,1003.44
2022-11-29T07:04:01.886Z,1003.46
2022-11-29T07:05:03.912Z,1003.49
2022-11-29T07:06:05.949Z,1003.48
2022-11-29T07:07:07.932Z,1003.50
2022-11-29T07:08:09.945Z,1003.53
2022-11-29T07:09:11.973Z,1003.55
2022-11-29T07:10:15.110Z,1003.48
2022-11-29T07:11:16.061Z,1003.52
2022-11-29T07:12:18.077Z,1003.52
2022-11-29T07:13:20.098Z,1003.58
2022-11-29T07:14:22.132Z,1003.56
2022-11-29T07:15:24.163Z,1003.55
2022-11-29T07:16:26.227Z,1003.54
2022-11-29T07:17:28.220Z,1003.54
2022-11-29T07:18:30.238Z,1003.55
2022-11-29T07:19:32.267Z,1003.54
2022-11-29T07:20:34.293Z,1003.53
2022-11-29T07:21:36.338Z,1003.56
2022-11-29T07:22:38.349Z,1003.54
2022-11-29T07:23:40.395Z,1003.57
2022-11-29T07:24:42.637Z,1003.56
2022-11-29T07:25:43.595Z,1003.58
2022-11-29T07:26:45.607Z,1003.58
2022-11-29T07:27:47.612Z,1003.60
2022-11-29T07:28:49.628Z,1003.60
2022-11-29T07:29:51.662Z,1003.59
2022-11-29T07:30:53.709Z,1003.57
2022-11-29T07:31:55.737Z,1003.62
2022-11-29T07:33:00.452Z,1003.58
2022-11-29T07:33:59.538Z,1003.59
2022-11-29T07:35:01.553Z,1003.61
2022-11-29T07:36:03.579Z,1003.64
2022-11-29T07:37:05.608Z,1003.65
2022-11-29T07:38:07.615Z,1003.68
2022-11-29T07:39:09.631Z,1003.66
2022-11-29T07:40:11.682Z,1003.67
2022-11-29T07:41:13.711Z,1003.72
2022-11-29T07:42:15.703Z,1003.69
2022-11-29T07:43:17.725Z,1003.72
2022-11-29T07:44:19.782Z,1003.72
2022-11-29T07:45:21.790Z,1003.72
2022-11-29T07:46:23.816Z,1003.74
2022-11-29T07:47:25.811Z,1003.73
2022-11-29T07:48:27.823Z,1003.76
2022-11-29T07:49:29.839Z,1003.76
2022-11-29T07:50:31.873Z,1003.75
2022-11-29T07:51:33.900Z,1003.76
2022-11-29T07:52:35.923Z,1003.77
2022-11-29T07:53:37.942Z,1003.80
2022-11-29T07:54:39.949Z,1003.83
2022-11-29T07:55:41.955Z,1003.79
2022-11-29T07:56:43.981Z,1003.80
2022-11-29T07:57:46.002Z,1003.80
2022-11-29T07:58:48.061Z,1003.82
2022-11-29T07:59:50.141Z,1003.82
2022-11-29T08:00:52.217Z,1003.81
2022-11-29T08:01:54.237Z,1003.85
2022-11-29T08:02:56.261Z,1003.81
2022-11-29T08:03:58.232Z,1003.81
2022-11-29T08:05:00.275Z,1003.80
2022-11-29T08:06:02.306Z,1003.83
2022-11-29T08:07:04.316Z,1003.82
2022-11-29T08:08:06.323Z,1003.82
2022-11-29T08:09:08.357Z,1003.82
2022-11-29T08:10:10.365Z,1003.77
2022-11-29T08:11:12.400Z,1003.81
2022-11-29T08:12:14.402Z,1003.86
2022-11-29T08:13:16.413Z,1003.81
2022-11-29T08:14:18.423Z,1003.80
2022-11-29T08:15:20.447Z,1003.79
2022-11-29T08:16:22.494Z,1003.83
2022-11-29T08:17:24.501Z,1003.85
2022-11-29T08:18:26.507Z,1003.83
2022-11-29T08:19:28.548Z,1003.84
2022-11-29T08:20:30.576Z,1003.83
2022-11-29T08:21:32.588Z,1003.82
2022-11-29T08:22:34.600Z,1003.80
2022-11-29T08:23:36.632Z,1003.79
2022-11-29T08:24:38.642Z,1003.85
2022-11-29T08:25:40.691Z,1003.80
2022-11-29T08:26:42.700Z,1003.83
2022-11-29T08:27:44.709Z,1003.84
2022-11-29T08:28:46.756Z,1003.85
2022-11-29T08:29:48.799Z,1003.88
2022-11-29T08:30:50.833Z,1003.92
2022-11-29T08:31:52.909Z,1003.86
2022-11-29T08:32:54.893Z,1003.86
2022-11-29T08:33:56.900Z,1003.87
2022-11-29T08:34:58.910Z,1003.89
2022-11-29T08:36:00.949Z,1003.86
2022-11-29T08:37:02.955Z,1003.86
2022-11-29T08:38:05.002Z,1003.84
2022-11-29T08:39:09.543Z,1003.88
2022-11-29T08:40:08.407Z,1003.85
2022-11-29T08:41:10.454Z,1003.87
2022-11-29T08:42:12.476Z,1003.90
2022-11-29T08:43:14.481Z,1003.94
2022-11-29T08:44:16.489Z,1003.95
2022-11-29T08:45:18.523Z,1003.95
2022-11-29T08:46:20.584Z,1004.00
2022-11-29T08:47:22.586Z,1003.97
2022-11-29T08:48:24.593Z,1003.96
2022-11-29T08:49:26.626Z,1003.95
2022-11-29T08:50:28.645Z,1003.96
2022-11-29T08:51:30.670Z,1003.93
2022-11-29T08:52:32.679Z,1003.95
2022-11-29T08:53:34.684Z,1003.95
2022-11-29T08:54:36.692Z,1003.99
2022-11-29T08:55:38.694Z,1003.96
2022-11-29T08:57:42.137Z,1003.97
2022-11-29T08:58:44.162Z,1004.01
2022-11-29T08:59:46.159Z,1004.03
2022-11-29T09:00:48.230Z,1004.02
2022-11-29T09:01:50.368Z,1004.03
2022-11-29T09:02:52.384Z,1004.06
2022-11-29T09:03:54.391Z,1004.07
2022-11-29T09:04:56.461Z,1004.07
2022-11-29T09:05:58.526Z,1004.12
2022-11-29T09:07:00.558Z,1004.11
2022-11-29T09:08:02.617Z,1004.15
2022-11-29T09:09:04.594Z,1004.16
2022-11-29T09:10:06.602Z,1004.16
2022-11-29T09:11:08.631Z,1004.18
2022-11-29T09:12:10.668Z,1004.21
2022-11-29T09:13:12.738Z,1004.18
2022-11-29T09:14:14.763Z,1004.20
2022-11-29T09:15:16.782Z,1004.14
2022-11-29T09:16:18.909Z,1004.14
2022-11-29T09:17:20.902Z,1004.14
2022-11-29T09:18:22.931Z,1004.19
2022-11-29T09:19:24.961Z,1004.20
2022-11-29T09:20:26.966Z,1004.19
2022-11-29T09:21:28.967Z,1004.19
2022-11-29T09:22:31.012Z,1004.20
2022-11-29T09:23:33.044Z,1004.22
2022-11-29T09:24:35.062Z,1004.20
2022-11-29T09:25:37.088Z,1004.20
2022-11-29T09:26:39.117Z,1004.22
2022-11-29T09:27:41.157Z,1004.20
2022-11-29T09:28:43.165Z,1004.24
2022-11-29T09:29:45.174Z,1004.29
2022-11-29T09:30:47.179Z,1004.28
2022-11-29T09:31:49.185Z,1004.25
2022-11-29T09:32:51.211Z,1004.26
2022-11-29T09:33:53.220Z,1004.29
2022-11-29T09:34:55.211Z,1004.30
2022-11-29T09:35:57.221Z,1004.29
2022-11-29T09:36:59.247Z,1004.34
2022-11-29T09:38:01.276Z,1004.31
2022-11-29T09:39:03.306Z,1004.33
2022-11-29T09:40:05.302Z,1004.30
2022-11-29T09:41:07.331Z,1004.37
2022-11-29T09:42:09.371Z,1004.34
2022-11-29T09:43:11.405Z,1004.35
2022-11-29T09:44:13.448Z,1004.39
2022-11-29T09:45:15.477Z,1004.38
2022-11-29T09:46:17.538Z,1004.39
2022-11-29T09:47:19.527Z,1004.38
2022-11-29T09:48:21.594Z,1004.41
2022-11-29T09:49:23.616Z,1004.38
2022-11-29T09:50:25.618Z,1004.40
2022-11-29T09:51:27.627Z,1004.38
2022-11-29T09:52:29.626Z,1004.41
2022-11-29T09:53:31.671Z,1004.37
2022-11-29T09:54:33.697Z,1004.39
2022-11-29T09:55:35.708Z,1004.37
2022-11-29T09:56:37.744Z,1004.37
2022-11-29T09:57:39.768Z,1004.35
2022-11-29T09:58:41.826Z,1004.34
2022-11-29T09:59:43.794Z,1004.36
2022-11-29T10:00:45.827Z,1004.35
2022-11-29T10:01:47.853Z,1004.36
2022-11-29T10:02:49.911Z,1004.33
2022-11-29T10:03:51.954Z,1004.37
2022-11-29T10:04:53.985Z,1004.36
2022-11-29T10:05:55.993Z,1004.39
2022-11-29T10:06:58.044Z,1004.38
2022-11-29T10:08:00.137Z,1004.37
2022-11-29T10:09:02.186Z,1004.35
2022-11-29T10:10:04.215Z,1004.37
2022-11-29T10:11:06.199Z,1004.38
2022-11-29T10:12:08.208Z,1004.38
2022-11-29T10:13:10.217Z,1004.34
2022-11-29T10:14:12.242Z,1004.38
2022-11-29T10:15:14.277Z,1004.43
2022-11-29T10:16:16.369Z,1004.44
2022-11-29T10:17:18.381Z,1004.43
2022-11-29T10:18:20.406Z,1004.42
2022-11-29T10:19:22.455Z,1004.45
2022-11-29T10:20:24.489Z,1004.41
2022-11-29T10:21:26.498Z,1004.42
2022-11-29T10:22:28.503Z,1004.45
2022-11-29T10:23:30.533Z,1004.42
2022-11-29T10:24:33.577Z,1004.45
2022-11-29T10:25:34.486Z,1004.45
2022-11-29T10:26:36.507Z,1004.42
2022-11-29T10:27:38.517Z,1004.47
2022-11-29T10:28:40.549Z,1004.45
2022-11-29T10:29:42.607Z,1004.46
2022-11-29T10:30:44.707Z,1004.45
2022-11-29T10:31:46.718Z,1004.45
2022-11-29T10:32:48.747Z,1004.47
2022-11-29T10:33:50.777Z,1004.46
2022-11-29T10:34:52.825Z,1004.46
2022-11-29T10:35:54.855Z,1004.48
2022-11-29T10:37:06.192Z,1004.44
2022-11-29T10:38:29.042Z,1004.48
2022-11-29T10:38:59.714Z,1004.45
2022-11-29T10:40:01.742Z,1004.43
2022-11-29T10:41:03.767Z,1004.43
2022-11-29T10:42:05.772Z,1004.43
2022-11-29T10:43:07.810Z,1004.44
2022-11-29T10:44:10.012Z,1004.39
2022-11-29T10:45:12.041Z,1004.40
2022-11-29T10:46:14.105Z,1004.37
2022-11-29T10:47:16.096Z,1004.39
2022-11-29T10:48:18.132Z,1004.40
2022-11-29T10:49:20.224Z,1004.41
2022-11-29T10:50:22.294Z,1004.43
2022-11-29T10:51:24.315Z,1004.42
2022-11-29T10:52:26.348Z,1004.46
2022-11-29T10:53:28.369Z,1004.40
2022-11-29T10:54:30.383Z,1004.39
2022-11-29T10:55:32.411Z,1004.40
2022-11-29T10:56:34.443Z,1004.39
2022-11-29T10:57:36.472Z,1004.41
2022-11-29T10:58:38.487Z,1004.40
2022-11-29T10:59:40.513Z,1004.39
2022-11-29T11:00:42.533Z,1004.41
2022-11-29T11:01:44.620Z,1004.43
2022-11-29T11:02:46.677Z,1004.40
2022-11-29T11:03:52.601Z,1004.42
2022-11-29T11:04:50.624Z,1004.38
2022-11-29T11:05:52.714Z,1004.40
2022-11-29T11:06:54.702Z,1004.41
2022-11-29T11:07:56.864Z,1004.38
2022-11-29T11:08:58.849Z,1004.36
2022-11-29T11:10:00.885Z,1004.41
2022-11-29T11:11:02.900Z,1004.46
2022-11-29T11:12:04.924Z,1004.44
2022-11-29T11:13:06.947Z,1004.40
2022-11-29T11:14:08.969Z,1004.38
2022-11-29T11:15:10.975Z,1004.36
2022-11-29T11:16:13.058Z,1004.40
2022-11-29T11:17:15.023Z,1004.40
2022-11-29T11:18:17.031Z,1004.41
2022-11-29T11:19:19.041Z,1004.43
2022-11-29T11:20:21.057Z,1004.44
2022-11-29T11:21:23.070Z,1004.43
2022-11-29T11:22:25.081Z,1004.43
2022-11-29T11:23:27.088Z,1004.44
2022-11-29T11:24:29.085Z,1004.45
2022-11-29T11:25:31.091Z,1004.49
2022-11-29T11:26:33.128Z,1004.47
2022-11-29T11:27:35.130Z,1004.48
2022-11-29T11:28:37.134Z,1004.49
2022-11-29T11:29:39.141Z,1004.51
2022-11-29T11:30:41.168Z,1004.50
2022-11-29T11:31:43.169Z,1004.53
2022-11-29T11:32:45.200Z,1004.51
2022-11-29T11:33:47.225Z,1004.57
2022-11-29T11:34:49.223Z,1004.52
2022-11-29T11:35:51.215Z,1004.50
2022-11-29T11:36:53.266Z,1004.53
2022-11-29T11:37:55.331Z,1004.56
2022-11-29T11:38:57.390Z,1004.54
2022-11-29T11:39:59.412Z,1004.61
2022-11-29T11:41:01.418Z,1004.55
2022-11-29T11:42:03.428Z,1004.61
2022-11-29T11:43:05.435Z,1004.60
2022-11-29T11:44:15.349Z,1004.60
2022-11-29T11:45:08.871Z,1004.60
2022-11-29T11:46:16.565Z,1004.60
2022-11-29T11:47:12.300Z,1004.64
2022-11-29T11:48:14.316Z,1004.62
2022-11-29T11:49:16.331Z,1004.62
2022-11-29T11:50:18.345Z,1004.61
2022-11-29T11:51:20.345Z,1004.63
2022-11-29T11:52:22.385Z,1004.65
2022-11-29T11:53:24.377Z,1004.59
2022-11-29T11:54:26.391Z,1004.63
2022-11-29T11:55:28.423Z,1004.65
2022-11-29T11:56:30.487Z,1004.63
2022-11-29T11:57:32.512Z,1004.64
2022-11-29T11:58:34.532Z,1004.61
2022-11-29T11:59:36.544Z,1004.61
2022-11-29T12:01:02.540Z,1004.64
2022-11-29T12:01:39.981Z,1004.61
2022-11-29T12:02:42.194Z,1004.62
2022-11-29T12:03:44.301Z,1004.63
2022-11-29T12:04:46.499Z,1004.66
2022-11-29T12:05:47.620Z,1004.66
2022-11-29T12:06:49.628Z,1004.63
2022-11-29T12:08:08.367Z,1004.63
2022-11-29T12:08:53.101Z,1004.66
2022-11-29T12:09:55.113Z,1004.69
2022-11-29T12:10:57.124Z,1004.68
2022-11-29T12:11:59.128Z,1004.69
2022-11-29T12:13:01.221Z,1004.70
2022-11-29T12:14:03.210Z,1004.68
2022-11-29T12:15:05.225Z,1004.71
2022-11-29T12:16:07.262Z,1004.71
2022-11-29T12:17:09.323Z,1004.74
2022-11-29T12:18:11.464Z,1004.75
2022-11-29T12:19:13.472Z,1004.71
2022-11-29T12:20:15.495Z,1004.74
2022-11-29T12:21:17.532Z,1004.73
2022-11-29T12:22:19.587Z,1004.77
2022-11-29T12:23:22.256Z,1004.75
2022-11-29T12:24:23.183Z,1004.78
2022-11-29T12:25:25.215Z,1004.76
2022-11-29T12:26:55.986Z,1004.77
2022-11-29T12:27:28.733Z,1004.77
2022-11-29T12:28:30.753Z,1004.80
2022-11-29T12:29:33.557Z,1004.82
2022-11-29T12:30:34.491Z,1004.81
2022-11-29T12:31:36.582Z,1004.79
2022-11-29T12:32:38.614Z,1004.81
2022-11-29T12:33:40.633Z,1004.83
2022-11-29T12:34:43.481Z,1004.81
2022-11-29T12:35:44.519Z,1004.86
2022-11-29T12:36:46.563Z,1004.80
2022-11-29T12:37:48.594Z,1004.86
2022-11-29T12:38:50.612Z,1004.90
2022-11-29T12:39:52.673Z,1004.91
2022-11-29T12:40:54.684Z,1004.89
2022-11-29T12:41:56.715Z,1004.90
2022-11-29T12:42:58.741Z,1004.90
2022-11-29T12:44:00.783Z,1004.89
2022-11-29T12:45:02.796Z,1004.91
2022-11-29T12:46:04.912Z,1004.94
2022-11-29T12:47:34.495Z,1004.92
2022-11-29T12:48:08.364Z,1004.94
2022-11-29T12:49:10.378Z,1004.94
2022-11-29T12:50:12.389Z,1004.95
2022-11-29T12:51:14.420Z,1004.95
2022-11-29T12:52:16.446Z,1004.93
2022-11-29T12:53:23.973Z,1004.93
2022-11-29T12:54:20.000Z,1004.93
2022-11-29T12:55:22.024Z,1004.92
2022-11-29T12:56:24.031Z,1004.99
2022-11-29T12:57:26.040Z,1004.97
2022-11-29T12:58:28.052Z,1004.99
2022-11-29T12:59:30.076Z,1004.97
2022-11-29T13:00:32.106Z,1005.00
2022-11-29T13:01:34.151Z,1004.97
2022-11-29T13:02:36.214Z,1004.99
2022-11-29T13:03:38.206Z,1004.96
2022-11-29T13:04:40.242Z,1004.97
2022-11-29T13:05:42.283Z,1004.98
2022-11-29T13:06:44.303Z,1005.01
2022-11-29T13:07:46.392Z,1004.97
2022-11-29T13:08:48.383Z,1004.98
2022-11-29T13:09:50.458Z,1005.03
2022-11-29T13:10:52.470Z,1004.98
2022-11-29T13:11:54.479Z,1005.01
2022-11-29T13:12:56.488Z,1005.00
2022-11-29T13:14:13.753Z,1005.03
2022-11-29T13:15:00.427Z,1005.05
2022-11-29T13:16:01.504Z,1005.07
2022-11-29T13:17:03.477Z,1005.03
2022-11-29T13:18:05.500Z,1005.06
2022-11-29T13:19:07.521Z,1005.08
2022-11-29T13:20:09.589Z,1005.08
2022-11-29T13:21:11.594Z,1005.12
2022-11-29T13:22:13.627Z,1005.12
2022-11-29T13:23:15.777Z,1005.06
2022-11-29T13:24:17.797Z,1005.07
2022-11-29T13:25:19.787Z,1005.08
2022-11-29T13:26:21.831Z,1005.05
2022-11-29T13:27:23.863Z,1005.05
2022-11-29T13:28:25.954Z,1005.06
2022-11-29T13:29:27.982Z,1005.11
2022-11-29T13:30:30.010Z,1005.10
2022-11-29T13:31:32.052Z,1005.14
2022-11-29T13:32:34.084Z,1005.12
2022-11-29T13:33:36.081Z,1005.11
2022-11-29T13:34:38.110Z,1005.14
2022-11-29T13:35:40.172Z,1005.16
2022-11-29T13:36:42.213Z,1005.14
2022-11-29T13:37:44.235Z,1005.17
2022-11-29T13:38:46.348Z,1005.16
2022-11-29T13:39:48.399Z,1005.18
2022-11-29T13:40:50.457Z,1005.17
2022-11-29T13:41:52.474Z,1005.21
2022-11-29T13:42:54.500Z,1005.28
2022-11-29T13:43:56.527Z,1005.26
2022-11-29T13:44:58.557Z,1005.26
2022-11-29T13:46:00.642Z,1005.24
2022-11-29T13:47:02.676Z,1005.29
2022-11-29T13:48:04.698Z,1005.25
2022-11-29T13:49:06.731Z,1005.27
2022-11-29T13:50:08.762Z,1005.26
2022-11-29T13:51:10.788Z,1005.27
2022-11-29T13:52:12.800Z,1005.29
2022-11-29T13:53:14.823Z,1005.26
2022-11-29T13:54:16.848Z,1005.28
2022-11-29T13:55:18.887Z,1005.27
2022-11-29T13:56:20.903Z,1005.25
2022-11-29T13:57:22.933Z,1005.29
2022-11-29T13:58:24.968Z,1005.26
2022-11-29T13:59:26.968Z,1005.30
2022-11-29T14:00:29.001Z,1005.30
2022-11-29T14:01:31.061Z,1005.30
2022-11-29T14:02:33.109Z,1005.29
2022-11-29T14:03:35.095Z,1005.32
2022-11-29T14:04:37.095Z,1005.33
2022-11-29T14:05:39.105Z,1005.32
2022-11-29T14:06:41.153Z,1005.36
2022-11-29T14:07:43.264Z,1005.31
2022-11-29T14:09:17.404Z,1005.33
2022-11-29T14:09:46.699Z,1005.30
2022-11-29T14:10:48.727Z,1005.30
2022-11-29T14:11:50.865Z,1005.28
2022-11-29T14:12:52.893Z,1005.28
2022-11-29T14:13:54.928Z,1005.27
2022-11-29T14:14:56.955Z,1005.28
2022-11-29T14:15:59.026Z,1005.28
2022-11-29T14:17:01.054Z,1005.28
2022-11-29T14:18:03.084Z,1005.31
2022-11-29T14:19:05.115Z,1005.32
2022-11-29T14:20:07.122Z,1005.30
2022-11-29T14:21:09.135Z,1005.32
2022-11-29T14:22:11.174Z,1005.34
2022-11-29T14:23:13.191Z,1005.33
2022-11-29T14:24:15.203Z,1005.32
2022-11-29T14:25:49.227Z,1005.32
2022-11-29T14:26:21.482Z,1005.30
2022-11-29T14:27:20.068Z,1005.31
2022-11-29T14:28:22.106Z,1005.29
2022-11-29T14:29:24.111Z,1005.31
2022-11-29T14:30:26.129Z,1005.32
2022-11-29T14:31:28.236Z,1005.33
2022-11-29T14:32:30.231Z,1005.35
2022-11-29T14:33:32.262Z,1005.30
2022-11-29T14:34:34.309Z,1005.34
2022-11-29T14:35:36.315Z,1005.34
2022-11-29T14:36:38.330Z,1005.32
2022-11-29T14:37:40.344Z,1005.33
2022-11-29T14:38:42.379Z,1005.33
2022-11-29T14:39:44.383Z,1005.36
2022-11-29T14:40:46.386Z,1005.33
2022-11-29T14:41:48.421Z,1005.35
2022-11-29T14:42:50.461Z,1005.35
2022-11-29T14:43:52.463Z,1005.39
2022-11-29T14:44:54.479Z,1005.37
2022-11-29T14:45:56.474Z,1005.38
2022-11-29T14:46:58.512Z,1005.36
2022-11-29T14:48:00.529Z,1005.43
2022-11-29T14:49:02.549Z,1005.42
2022-11-29T14:50:04.603Z,1005.46
2022-11-29T14:51:06.609Z,1005.46
